createdAt,value
2022-09-28T00:04:22.410Z,9.88
2022-09-28T00:09:23.387Z,9.89
2022-09-28T00:14:09.421Z,9.85
2022-09-28T00:19:09.335Z,9.83
2022-09-28T00:24:09.509Z,9.82
2022-09-28T00:29:08.844Z,9.8
2022-09-28T00:34:06.944Z,9.81
2022-09-28T00:39:06.758Z,9.79
2022-09-28T00:44:06.576Z,9.79
2022-09-28T00:49:06.192Z,9.77
2022-09-28T00:54:05.262Z,9.76
2022-09-28T00:58:50.949Z,9.77
2022-09-28T01:03:51.328Z,9.76
2022-09-28T01:08:50.512Z,9.74
2022-09-28T01:13:51.574Z,9.75
2022-09-28T01:18:48.548Z,9.79
2022-09-28T01:23:48.351Z,9.85
2022-09-28T01:28:49.076Z,9.89
2022-09-28T01:33:47.678Z,9.91
2022-09-28T01:38:46.869Z,9.93
2022-09-28T01:43:47.274Z,9.97
2022-09-28T01:48:46.076Z,10.01
2022-09-28T01:53:45.700Z,10.02
2022-09-28T01:58:45.120Z,10.06
2022-09-28T02:03:45.020Z,10.1
2022-09-28T02:08:44.072Z,10.1
2022-09-28T02:13:44.761Z,9.97
2022-09-28T02:18:42.129Z,10.01
2022-09-28T02:23:41.958Z,10.02
2022-09-28T02:28:41.073Z,10
2022-09-28T02:33:40.893Z,9.97
2022-09-28T02:38:39.031Z,9.92
2022-09-28T02:43:38.785Z,9.82
2022-09-28T02:48:43.833Z,9.74
2022-09-28T02:53:38.003Z,9.68
2022-09-28T02:58:37.656Z,9.62
2022-09-28T02:59:57.908Z,9.6
2022-09-28T03:04:58.197Z,9.56
2022-09-28T03:09:57.408Z,9.49
2022-09-28T03:14:55.917Z,9.51
2022-09-28T03:19:55.245Z,9.51
2022-09-28T03:24:55.461Z,9.49
2022-09-28T03:29:54.635Z,9.47
2022-09-28T03:34:54.130Z,9.46
2022-09-28T03:39:53.084Z,9.41
2022-09-28T03:44:53.287Z,9.43
2022-09-28T03:49:52.189Z,9.43
2022-09-28T03:54:53.020Z,9.42
2022-09-28T03:58:55.782Z,9.41
2022-09-28T04:03:55.502Z,9.39
2022-09-28T04:08:54.454Z,9.37
2022-09-28T04:13:54.252Z,9.35
2022-09-28T04:18:52.497Z,9.34
2022-09-28T04:23:51.961Z,9.33
2022-09-28T04:28:52.008Z,9.32
2022-09-28T04:33:51.861Z,9.32
2022-09-28T04:38:53.011Z,9.31
2022-09-28T04:43:48.965Z,9.31
2022-09-28T04:48:49.321Z,9.31
2022-09-28T04:53:48.662Z,9.31
2022-09-28T04:58:50.388Z,9.3
2022-09-28T05:03:46.525Z,9.29
2022-09-28T05:08:46.603Z,9.28
2022-09-28T05:13:45.802Z,9.28
2022-09-28T05:18:45.563Z,9.28
2022-09-28T05:23:44.957Z,9.28
2022-09-28T05:28:44.952Z,9.3
2022-09-28T05:33:43.866Z,9.31
2022-09-28T05:38:44.594Z,9.31
2022-09-28T05:43:41.800Z,9.33
2022-09-28T05:48:41.647Z,9.34
2022-09-28T05:53:40.872Z,9.35
2022-09-28T05:58:40.619Z,9.38
2022-09-28T06:03:38.948Z,9.41
2022-09-28T06:08:38.756Z,9.43
2022-09-28T06:13:38.665Z,9.43
2022-09-28T06:18:40.001Z,9.46
2022-09-28T06:23:37.108Z,9.47
2022-09-28T06:28:36.896Z,9.47
2022-09-28T06:33:36.195Z,9.47
2022-09-28T06:38:35.848Z,9.5
2022-09-28T06:43:34.547Z,9.53
2022-09-28T06:48:34.355Z,9.6
2022-09-28T06:53:34.239Z,9.64
2022-09-28T06:58:33.428Z,9.66
2022-09-28T06:59:54.992Z,9.68
2022-09-28T07:04:54.498Z,9.71
2022-09-28T07:09:55.276Z,9.79
2022-09-28T07:14:54.548Z,9.87
2022-09-28T07:19:54.553Z,9.84
2022-09-28T07:24:51.790Z,9.82
2022-09-28T07:29:51.635Z,9.96
2022-09-28T07:34:51.764Z,10.18
2022-09-28T07:39:50.876Z,10.41
2022-09-28T07:44:49.746Z,10.82
2022-09-28T07:49:49.210Z,10.96
2022-09-28T07:54:49.093Z,11.22
2022-09-28T07:59:26.498Z,11.21
2022-09-28T08:04:24.006Z,11.21
2022-09-28T08:09:23.097Z,11.25
2022-09-28T08:14:24.471Z,11.15
2022-09-28T08:19:21.203Z,11.01
2022-09-28T08:24:21.276Z,10.94
2022-09-28T08:29:21.014Z,10.98
2022-09-28T08:34:08.337Z,11.17
2022-09-28T08:39:08.114Z,11.38
2022-09-28T08:44:08.007Z,11.43
2022-09-28T08:49:24.028Z,11.49
2022-09-28T08:54:08.072Z,11.5
2022-09-28T08:58:53.082Z,11.5
2022-09-28T09:03:53.158Z,11.51
2022-09-28T09:08:52.522Z,11.4
2022-09-28T09:13:53.522Z,11.33
2022-09-28T09:18:50.563Z,11.51
2022-09-28T09:23:50.298Z,11.67
2022-09-28T09:28:49.313Z,11.69
2022-09-28T09:33:49.298Z,11.68
2022-09-28T09:38:48.314Z,11.73
2022-09-28T09:43:48.279Z,11.67
2022-09-28T09:48:47.406Z,11.43
2022-09-28T09:53:48.111Z,11.38
2022-09-28T09:58:45.551Z,11.59
2022-09-28T10:03:45.498Z,11.95
2022-09-28T10:08:44.470Z,12.01
2022-09-28T10:13:44.358Z,11.94
2022-09-28T10:18:42.571Z,11.87
2022-09-28T10:23:42.564Z,11.94
2022-09-28T10:28:42.551Z,12.2
2022-09-28T10:33:42.130Z,12.54
2022-09-28T10:38:41.511Z,12.93
2022-09-28T10:43:41.563Z,13.26
2022-09-28T10:48:41.299Z,12.89
2022-09-28T10:53:40.730Z,12.61
2022-09-28T10:58:41.394Z,12.43
2022-09-28T11:03:38.085Z,12.23
2022-09-28T11:08:37.915Z,12.47
2022-09-28T11:13:37.684Z,13.01
2022-09-28T11:18:36.965Z,13.08
2022-09-28T11:23:36.873Z,12.7
2022-09-28T11:28:36.579Z,12.38
2022-09-28T11:33:35.580Z,12.23
2022-09-28T11:38:36.347Z,12.19
2022-09-28T11:43:33.428Z,12.25
2022-09-28T11:48:33.033Z,12.36
2022-09-28T11:53:32.096Z,12.39
2022-09-28T11:58:31.916Z,12.58
2022-09-28T11:59:53.482Z,12.61
2022-09-28T12:04:53.262Z,12.72
2022-09-28T12:09:53.540Z,12.8
2022-09-28T12:14:52.355Z,12.95
2022-09-28T12:19:52.051Z,13.47
2022-09-28T12:24:51.704Z,13.96
2022-09-28T12:29:51.942Z,14.21
2022-09-28T12:34:51.290Z,14.13
2022-09-28T12:39:57.792Z,13.84
2022-09-28T12:44:49.406Z,13.54
2022-09-28T12:54:47.776Z,13.08
2022-09-28T12:59:22.845Z,13.32
2022-09-28T13:04:23.398Z,13.48
2022-09-28T13:09:22.516Z,13.46
2022-09-28T13:14:23.992Z,13.3
2022-09-28T13:19:10.266Z,13.35
2022-09-28T13:29:21.380Z,15.21
2022-09-28T13:34:08.963Z,15.61
2022-09-28T13:39:09.118Z,15.8
2022-09-28T13:44:09.329Z,15.84
2022-09-28T13:49:08.868Z,15.32
2022-09-28T13:54:07.835Z,14.69
2022-09-28T13:58:51.799Z,14.36
2022-09-28T14:03:51.725Z,14.1
2022-09-28T14:08:50.512Z,13.75
2022-09-28T14:13:51.475Z,13.51
2022-09-28T14:18:48.076Z,13.38
2022-09-28T14:23:47.816Z,13.36
2022-09-28T14:28:47.611Z,13.39
2022-09-28T14:33:46.791Z,13.43
2022-09-28T14:39:40.391Z,13.47
2022-09-28T14:43:46.248Z,13.48
2022-09-28T14:48:47.598Z,13.44
2022-09-28T14:53:44.753Z,13.37
2022-09-28T14:58:44.742Z,13.27
2022-09-28T15:03:43.917Z,13.11
2022-09-28T15:08:42.907Z,12.9
2022-09-28T15:13:42.556Z,12.66
2022-09-28T15:18:42.397Z,12.42
2022-09-28T15:23:41.530Z,12.16
2022-09-28T15:28:42.331Z,11.93
2022-09-28T15:33:39.204Z,11.77
2022-09-28T15:38:38.946Z,11.72
2022-09-28T15:43:37.943Z,11.71
2022-09-28T15:48:37.803Z,11.67
2022-09-28T15:53:36.041Z,11.55
2022-09-28T15:58:35.390Z,11.49
2022-09-28T16:03:35.459Z,11.46
2022-09-28T16:08:36.911Z,11.4
2022-09-28T16:13:34.120Z,11.48
2022-09-28T16:18:33.909Z,11.45
2022-09-28T16:23:33.956Z,11.45
2022-09-28T16:28:34.357Z,11.4
2022-09-28T16:33:31.806Z,11.36
2022-09-28T16:38:31.697Z,11.35
2022-09-28T16:43:31.582Z,11.33
2022-09-28T16:48:30.624Z,11.3
2022-09-28T16:53:29.809Z,11.26
2022-09-28T16:58:29.508Z,11.26
2022-09-28T16:59:50.705Z,11.2
2022-09-28T17:04:49.788Z,10.71
2022-09-28T17:09:50.311Z,10.17
2022-09-28T17:14:47.232Z,9.95
2022-09-28T17:19:46.969Z,9.8
2022-09-28T17:24:46.126Z,9.67
2022-09-28T17:29:45.530Z,9.54
2022-09-28T17:34:45.892Z,9.39
2022-09-28T17:39:43.541Z,9.18
2022-09-28T17:44:43.466Z,9.13
2022-09-28T17:49:41.627Z,9.16
2022-09-28T17:54:41.616Z,9.2
2022-09-28T17:59:21.474Z,9.18
2022-09-28T18:04:47.490Z,9.22
2022-09-28T18:09:08.470Z,9.21
2022-09-28T18:14:11.177Z,9.18
2022-09-28T18:19:08.246Z,9.18
2022-09-28T18:24:08.422Z,9.21
2022-09-28T18:29:06.095Z,9.28
2022-09-28T18:34:05.779Z,9.38
2022-09-28T18:39:05.910Z,9.42
2022-09-28T18:44:05.195Z,9.42
2022-09-28T18:49:04.082Z,9.43
2022-09-28T18:54:03.877Z,9.43
2022-09-28T18:58:49.466Z,9.52
2022-09-28T19:03:49.048Z,9.57
2022-09-28T19:08:49.614Z,9.63
2022-09-28T19:13:46.871Z,9.67
2022-09-28T19:18:46.738Z,9.68
2022-09-28T19:23:49.139Z,9.68
2022-09-28T19:28:45.289Z,9.68
2022-09-28T19:33:44.474Z,9.68
2022-09-28T19:38:44.451Z,9.7
2022-09-28T19:43:43.419Z,9.71
2022-09-28T19:48:44.425Z,9.72
2022-09-28T19:53:41.618Z,9.7
2022-09-28T19:58:41.637Z,9.67
2022-09-28T20:03:41.686Z,9.64
2022-09-28T20:08:41.457Z,9.6
2022-09-28T20:13:39.402Z,9.57
2022-09-28T20:18:39.386Z,9.52
2022-09-28T20:23:39.105Z,9.45
2022-09-28T20:28:38.675Z,9.41
2022-09-28T20:33:37.554Z,9.37
2022-09-28T20:38:37.417Z,9.31
2022-09-28T20:43:36.969Z,9.26
2022-09-28T20:48:36.596Z,9.21
2022-09-28T20:53:37.287Z,9.14
2022-09-28T20:58:34.175Z,9.1
2022-09-28T20:59:55.660Z,9.08
2022-09-28T21:04:55.153Z,9.01
2022-09-28T21:09:53.804Z,8.93
2022-09-28T21:14:53.375Z,8.91
2022-09-28T21:19:52.887Z,8.89
2022-09-28T21:24:52.769Z,8.87
2022-09-28T21:29:53.250Z,8.78
2022-09-28T21:34:50.300Z,8.63
2022-09-28T21:39:50.034Z,8.41
2022-09-28T21:44:50.127Z,8.24
2022-09-28T21:49:49.923Z,8.03
2022-09-28T21:54:48.137Z,7.84
2022-09-28T21:58:54.021Z,7.7
2022-09-28T22:03:54.259Z,7.55
2022-09-28T22:08:53.783Z,7.37
2022-09-28T22:13:53.068Z,7.23
2022-09-28T22:18:52.070Z,7.08
2022-09-28T22:23:52.279Z,6.93
2022-09-28T22:28:51.530Z,6.83
2022-09-28T22:33:49.370Z,6.75
2022-09-28T22:38:48.859Z,6.66
2022-09-28T22:43:48.719Z,6.58
2022-09-28T22:48:48.068Z,6.47
2022-09-28T22:53:47.076Z,6.34
2022-09-28T22:58:46.443Z,6.22
2022-09-28T23:03:46.292Z,6.14
2022-09-28T23:08:45.342Z,6.07
2022-09-28T23:13:46.256Z,6
2022-09-28T23:18:43.413Z,5.93
2022-09-28T23:23:43.002Z,5.85
2022-09-28T23:28:43.363Z,5.76
2022-09-28T23:33:42.780Z,5.75
2022-09-28T23:38:41.056Z,5.67
2022-09-28T23:43:40.628Z,5.64
2022-09-28T23:48:40.576Z,5.66
2022-09-28T23:53:40.118Z,5.65
2022-09-28T23:58:39.091Z,5.59
